Villa El Recreo, Puerto Rico
Current Conditions -  °F | °C
As of 3:53 PM on Monday 26 Jan 2015 (Local Time) from TJNR Reporting Station
Clear Clear  
Wind Chill: 83°   Ceiling: Unl
Heat Index: 87°   Visibility: 10mi
Dew Point: 70°   Wind: 12mph
Humidity: 65%   Direction: 100°E
Pressure: 29.99"   Gusts: NA
Location:  18.0547°N, 65.8738°W
Report Text: TJNR 261953Z AUTO 10010KT 10SM CLR 28/21 A2999 RMK AO2 SLP155 T02830211 $
Loading
Personal Weather Stations






























Interactive Weather Map New forecast layout! Learn more

10-Day Weather Forecast

Advertisements
Track Severe Weather on mobile